Time;durP1;ratioP1;P1;durP2;ratioP2;P2;SDS_P1;SDS_P2;PMS_P1;PMS_P2;Temp;Humidity;BMP_temperature;BMP_pressure;BME280_temperature;BME280_humidity;BME280_pressure;Samples;Min_cycle;Max_cycle;Signal;HPM_P1;HPM_P2
2023/11/11 00:00:28;;;;;;;4.00;2.92;;;;;;;;;;5024440;28;20037;-55
2023/11/11 00:02:53;;;;;;;4.85;3.13;;;;;;;;;;5007752;28;20551;-54
2023/11/11 00:05:18;;;;;;;5.37;3.23;;;;;;;;;;5021175;28;20105;-55
2023/11/11 00:07:44;;;;;;;3.72;2.83;;;;;;;;;;5011634;28;20276;-54
2023/11/11 00:10:11;;;;;;;4.50;3.17;;;;;;;;;;5024663;28;20029;-54
2023/11/11 00:12:38;;;;;;;3.75;2.45;;;;;;;;;;5023541;28;20050;-55
2023/11/11 00:15:04;;;;;;;3.83;3.00;;;;;;;;;;5023978;28;20022;-55
2023/11/11 00:17:30;;;;;;;4.38;3.00;;;;;;;;;;5012541;28;20449;-55
2023/11/11 00:19:55;;;;;;;3.80;3.00;;;;;;;;;;5015657;28;20040;-54
2023/11/11 00:22:21;;;;;;;3.83;2.93;;;;;;;;;;5015447;28;20196;-54
2023/11/11 00:24:47;;;;;;;4.03;2.67;;;;;;;;;;5024570;28;20268;-55
2023/11/11 00:27:13;;;;;;;4.05;2.97;;;;;;;;;;5023677;28;20491;-54
2023/11/11 00:29:40;;;;;;;4.07;2.75;;;;;;;;;;5024206;28;20029;-53
2023/11/11 00:32:06;;;;;;;3.70;2.78;;;;;;;;;;5013797;28;20068;-54
2023/11/11 00:34:32;;;;;;;4.45;2.88;;;;;;;;;;5015126;28;20029;-54
2023/11/11 00:36:57;;;;;;;3.50;2.90;;;;;;;;;;5022831;28;20537;-54
2023/11/11 00:39:23;;;;;;;4.72;3.10;;;;;;;;;;5024129;28;20033;-54
2023/11/11 00:41:48;;;;;;;3.63;2.72;;;;;;;;;;5023473;28;20476;-54
2023/11/11 00:44:14;;;;;;;4.13;2.87;;;;;;;;;;5024022;28;20128;-55
2023/11/11 00:46:39;;;;;;;3.80;2.80;;;;;;;;;;5024171;28;20315;-53
2023/11/11 00:49:08;;;;;;;3.55;2.85;;;;;;;;;;5023347;28;20037;-54
2023/11/11 00:51:33;;;;;;;4.30;2.95;;;;;;;;;;5015581;28;20504;-54
2023/11/11 00:53:59;;;;;;;4.22;3.00;;;;;;;;;;5017700;28;20125;-55
2023/11/11 00:56:24;;;;;;;4.15;3.20;;;;;;;;;;5011647;28;20065;-54
2023/11/11 00:58:49;;;;;;;4.47;2.70;;;;;;;;;;5015292;28;20064;-55
2023/11/11 01:01:14;;;;;;;3.50;2.50;;;;;;;;;;5014629;28;20100;-54
2023/11/11 01:03:40;;;;;;;4.77;2.67;;;;;;;;;;5023416;28;20064;-55
2023/11/11 01:06:06;;;;;;;3.95;2.72;;;;;;;;;;5026848;28;20276;-54
2023/11/11 01:08:31;;;;;;;3.95;3.15;;;;;;;;;;5014036;28;20460;-53
2023/11/11 01:10:57;;;;;;;4.00;2.60;;;;;;;;;;5024297;28;20116;-54
2023/11/11 01:13:23;;;;;;;4.45;3.15;;;;;;;;;;5026871;28;20495;-54
2023/11/11 01:15:52;;;;;;;3.92;3.00;;;;;;;;;;5022582;28;20068;-55
2023/11/11 01:18:18;;;;;;;4.25;3.00;;;;;;;;;;5026895;28;20117;-55
2023/11/11 01:20:43;;;;;;;3.03;2.60;;;;;;;;;;5020633;28;20342;-55
2023/11/11 01:23:08;;;;;;;3.67;2.70;;;;;;;;;;5003047;28;20045;-56
2023/11/11 01:25:36;;;;;;;3.65;2.63;;;;;;;;;;5007019;28;20472;-55
2023/11/11 01:28:01;;;;;;;3.40;2.90;;;;;;;;;;5015707;28;20038;-54
2023/11/11 01:30:26;;;;;;;3.53;2.75;;;;;;;;;;4999600;28;20037;-53
2023/11/11 01:32:52;;;;;;;4.10;2.83;;;;;;;;;;5022747;28;20064;-56
2023/11/11 01:35:17;;;;;;;4.28;2.80;;;;;;;;;;5018290;28;20074;-54
2023/11/11 01:37:42;;;;;;;3.95;3.05;;;;;;;;;;5025389;28;20109;-54
2023/11/11 01:40:08;;;;;;;4.18;3.08;;;;;;;;;;5026640;28;20073;-53
2023/11/11 01:42:33;;;;;;;3.50;2.80;;;;;;;;;;5026443;28;20547;-54
2023/11/11 01:44:59;;;;;;;3.67;2.95;;;;;;;;;;5013350;28;20033;-54
2023/11/11 01:47:24;;;;;;;3.45;2.60;;;;;;;;;;5012804;28;20506;-55
2023/11/11 01:49:49;;;;;;;3.70;2.70;;;;;;;;;;5026426;28;20095;-55
2023/11/11 01:52:14;;;;;;;3.65;2.60;;;;;;;;;;5020188;28;20315;-55
2023/11/11 01:54:40;;;;;;;4.22;3.03;;;;;;;;;;5012445;28;20337;-55
2023/11/11 01:57:06;;;;;;;3.00;2.60;;;;;;;;;;5025650;28;20041;-55
2023/11/11 01:59:31;;;;;;;3.33;2.47;;;;;;;;;;5024655;28;20813;-56
2023/11/11 02:02:00;;;;;;;3.75;2.90;;;;;;;;;;5024506;28;20041;-54
2023/11/11 02:04:25;;;;;;;3.30;2.58;;;;;;;;;;5005276;28;20085;-56
2023/11/11 02:06:50;;;;;;;3.67;2.73;;;;;;;;;;5023714;28;20400;-57
2023/11/11 02:09:18;;;;;;;3.43;2.60;;;;;;;;;;5008569;28;20291;-56
2023/11/11 02:11:43;;;;;;;3.88;2.80;;;;;;;;;;5036543;28;20295;-55
2023/11/11 02:14:10;;;;;;;3.13;2.50;;;;;;;;;;5025655;28;20038;-56
2023/11/11 02:16:35;;;;;;;2.97;2.42;;;;;;;;;;5010768;28;20427;-56
2023/11/11 02:19:01;;;;;;;4.05;2.60;;;;;;;;;;5021613;28;20063;-55
2023/11/11 02:21:31;;;;;;;3.80;2.70;;;;;;;;;;5022031;28;20084;-56
2023/11/11 02:23:56;;;;;;;;;;;;;;;;;;5026194;28;20088;-55
2023/11/11 02:26:21;;;;;;;3.38;2.58;;;;;;;;;;5025656;28;19913;-55
2023/11/11 02:28:46;;;;;;;3.38;2.50;;;;;;;;;;5016397;28;20033;-55
2023/11/11 02:31:12;;;;;;;3.97;2.63;;;;;;;;;;5030347;28;20047;-55
2023/11/11 02:33:37;;;;;;;3.55;2.30;;;;;;;;;;5019856;28;20851;-55
2023/11/11 02:36:02;;;;;;;3.60;2.55;;;;;;;;;;5025547;28;20033;-55
2023/11/11 02:38:28;;;;;;;4.28;2.80;;;;;;;;;;5029695;28;20499;-55
2023/11/11 02:40:53;;;;;;;3.83;2.60;;;;;;;;;;5018587;28;20045;-55
2023/11/11 02:43:18;;;;;;;3.13;2.40;;;;;;;;;;5019610;28;20042;-55
2023/11/11 02:45:44;;;;;;;3.58;2.65;;;;;;;;;;5011476;28;20308;-54
2023/11/11 02:48:09;;;;;;;3.20;2.70;;;;;;;;;;5021216;28;20037;-55
2023/11/11 02:50:34;;;;;;;3.33;2.33;;;;;;;;;;5019381;28;20375;-56
2023/11/11 02:52:59;;;;;;;3.00;2.33;;;;;;;;;;5022134;28;20346;-55
2023/11/11 02:55:25;;;;;;;3.00;2.42;;;;;;;;;;5010062;28;20034;-56
2023/11/11 02:57:50;;;;;;;2.83;2.10;;;;;;;;;;5025336;28;20434;-56
2023/11/11 03:00:16;;;;;;;3.00;2.20;;;;;;;;;;5025475;28;20322;-56
2023/11/11 03:02:42;;;;;;;3.72;2.40;;;;;;;;;;5002566;28;20633;-55
2023/11/11 03:05:07;;;;;;;3.45;2.58;;;;;;;;;;5002300;28;20091;-55
2023/11/11 03:07:33;;;;;;;2.63;2.20;;;;;;;;;;5004318;28;20172;-53
2023/11/11 03:10:04;;;;;;;2.78;2.38;;;;;;;;;;4998925;28;20069;-54
2023/11/11 03:12:30;;;;;;;2.72;2.22;;;;;;;;;;5014720;28;20069;-55
2023/11/11 03:14:55;;;;;;;3.58;2.38;;;;;;;;;;4998061;28;20037;-54
2023/11/11 03:17:21;;;;;;;3.50;2.17;;;;;;;;;;4995294;28;20038;-54
2023/11/11 03:19:47;;;;;;;3.30;2.38;;;;;;;;;;5005620;28;20062;-54
2023/11/11 03:22:12;;;;;;;3.53;2.70;;;;;;;;;;5004285;28;20034;-54
2023/11/11 03:24:37;;;;;;;3.85;2.20;;;;;;;;;;5000285;28;20512;-54
2023/11/11 03:27:03;;;;;;;3.47;2.25;;;;;;;;;;5014993;28;20503;-53
2023/11/11 03:29:28;;;;;;;3.25;2.53;;;;;;;;;;5010424;28;20440;-54
2023/11/11 03:31:54;;;;;;;3.63;2.33;;;;;;;;;;5001049;28;20041;-55
2023/11/11 03:34:19;;;;;;;2.80;2.23;;;;;;;;;;5003280;28;20042;-54
2023/11/11 03:36:44;;;;;;;3.05;2.15;;;;;;;;;;5004493;28;20289;-54
2023/11/11 03:39:10;;;;;;;3.60;2.60;;;;;;;;;;5012951;28;20052;-54
2023/11/11 03:41:35;;;;;;;3.13;2.38;;;;;;;;;;5008847;28;20294;-55
2023/11/11 03:44:01;;;;;;;3.10;2.35;;;;;;;;;;5001136;28;20416;-54
2023/11/11 03:46:26;;;;;;;3.65;2.30;;;;;;;;;;4997198;28;20038;-54
2023/11/11 03:48:51;;;;;;;3.15;2.50;;;;;;;;;;5004790;28;20045;-53
2023/11/11 03:51:17;;;;;;;3.13;2.22;;;;;;;;;;5000812;28;20037;-54
2023/11/11 03:53:42;;;;;;;4.18;2.50;;;;;;;;;;5003536;28;20550;-56
2023/11/11 03:56:08;;;;;;;2.87;2.27;;;;;;;;;;4999354;28;20037;-54
2023/11/11 03:58:33;;;;;;;2.95;2.25;;;;;;;;;;5005226;28;20284;-54
2023/11/11 04:00:59;;;;;;;3.13;1.98;;;;;;;;;;5003080;28;20058;-55
2023/11/11 04:03:24;;;;;;;3.90;1.92;;;;;;;;;;4999102;28;20038;-54
2023/11/11 04:05:49;;;;;;;2.85;2.33;;;;;;;;;;4999456;28;20091;-54
2023/11/11 04:08:15;;;;;;;2.73;2.07;;;;;;;;;;4993273;28;20046;-58
2023/11/11 04:10:40;;;;;;;3.67;2.05;;;;;;;;;;4999658;28;20285;-55
2023/11/11 04:13:06;;;;;;;3.25;2.20;;;;;;;;;;5002273;28;20049;-54
2023/11/11 04:15:31;;;;;;;2.60;2.17;;;;;;;;;;4984826;28;20096;-55
2023/11/11 04:17:57;;;;;;;2.83;2.30;;;;;;;;;;5003079;28;20030;-54
2023/11/11 04:20:22;;;;;;;2.85;2.20;;;;;;;;;;5004685;28;20042;-54
2023/11/11 04:22:47;;;;;;;2.63;1.83;;;;;;;;;;5013137;28;20030;-54
2023/11/11 04:25:13;;;;;;;2.58;1.90;;;;;;;;;;5003627;28;20128;-55
2023/11/11 04:27:40;;;;;;;2.15;1.73;;;;;;;;;;4999082;28;20053;-54
2023/11/11 04:30:06;;;;;;;2.80;2.10;;;;;;;;;;5004164;28;20037;-55
2023/11/11 04:32:35;;;;;;;3.00;2.20;;;;;;;;;;5004366;28;20038;-54
2023/11/11 04:35:01;;;;;;;2.50;1.92;;;;;;;;;;5002161;28;20045;-55
2023/11/11 04:37:26;;;;;;;2.67;1.83;;;;;;;;;;5001203;28;20563;-55
2023/11/11 04:39:57;;;;;;;2.95;2.00;;;;;;;;;;5008201;28;20168;-54
2023/11/11 04:42:24;;;;;;;3.53;2.13;;;;;;;;;;5010075;28;20021;-54
2023/11/11 04:44:49;;;;;;;3.25;1.90;;;;;;;;;;4999852;28;20046;-55
2023/11/11 04:47:14;;;;;;;2.45;1.95;;;;;;;;;;5007504;28;20551;-53
2023/11/11 04:49:40;;;;;;;2.78;1.85;;;;;;;;;;5015490;28;20128;-54
2023/11/11 04:52:05;;;;;;;3.03;1.98;;;;;;;;;;5013824;28;20512;-56
2023/11/11 04:54:31;;;;;;;2.92;2.22;;;;;;;;;;5007029;28;20407;-56
2023/11/11 04:56:56;;;;;;;2.70;2.08;;;;;;;;;;5005166;28;20140;-55
2023/11/11 04:59:21;;;;;;;2.70;1.93;;;;;;;;;;5007589;28;20053;-55
2023/11/11 05:01:47;;;;;;;2.33;1.87;;;;;;;;;;5001101;28;20849;-56
2023/11/11 05:04:12;;;;;;;2.70;1.90;;;;;;;;;;5005902;28;20276;-55
2023/11/11 05:06:38;;;;;;;1.92;1.58;;;;;;;;;;5008022;28;20037;-55
2023/11/11 05:09:04;;;;;;;2.20;2.00;;;;;;;;;;5020087;28;20042;-53
2023/11/11 05:11:30;;;;;;;2.22;1.80;;;;;;;;;;4996417;28;20035;-54
2023/11/11 05:13:56;;;;;;;2.88;1.90;;;;;;;;;;5007147;28;20125;-55
2023/11/11 05:16:38;;;;;;;3.90;1.88;;;;;;;;;;5026094;28;20144;-56
2023/11/11 05:19:04;;;;;;;2.20;1.60;;;;;;;;;;5026792;28;20065;-55
2023/11/11 05:21:29;;;;;;;2.13;1.58;;;;;;;;;;5036748;28;20103;-55
2023/11/11 05:23:55;;;;;;;1.90;1.70;;;;;;;;;;5035110;28;20025;-55
2023/11/11 05:26:20;;;;;;;2.20;1.60;;;;;;;;;;5035929;28;20284;-55
2023/11/11 05:28:46;;;;;;;2.50;2.05;;;;;;;;;;5033800;28;20171;-54
2023/11/11 05:31:12;;;;;;;2.80;1.80;;;;;;;;;;5036081;28;20530;-56
2023/11/11 05:33:37;;;;;;;2.72;1.73;;;;;;;;;;5031963;28;20519;-56
2023/11/11 05:36:05;;;;;;;2.22;1.50;;;;;;;;;;5024825;28;20135;-55
2023/11/11 05:38:30;;;;;;;2.15;1.67;;;;;;;;;;5032744;28;20128;-56
2023/11/11 05:40:56;;;;;;;2.97;1.80;;;;;;;;;;5034212;28;20125;-53
2023/11/11 05:43:22;;;;;;;2.77;1.80;;;;;;;;;;5037018;28;20279;-55
2023/11/11 05:45:47;;;;;;;2.22;1.60;;;;;;;;;;5030612;28;20282;-55
2023/11/11 05:48:13;;;;;;;2.07;1.80;;;;;;;;;;5033747;28;20621;-54
2023/11/11 05:50:38;;;;;;;2.20;1.60;;;;;;;;;;5036344;28;20280;-55
2023/11/11 05:53:03;;;;;;;2.08;1.50;;;;;;;;;;5004938;28;20296;-55
2023/11/11 05:55:29;;;;;;;2.00;1.58;;;;;;;;;;5024457;28;20041;-55
2023/11/11 05:57:54;;;;;;;2.08;1.52;;;;;;;;;;5025544;28;20491;-56
2023/11/11 06:00:19;;;;;;;2.57;1.60;;;;;;;;;;5025406;28;20148;-55
2023/11/11 06:02:44;;;;;;;2.30;1.50;;;;;;;;;;5018818;28;20855;-55
2023/11/11 06:05:10;;;;;;;2.35;1.30;;;;;;;;;;5004018;28;20420;-55
2023/11/11 06:07:35;;;;;;;2.25;1.63;;;;;;;;;;5004067;28;20141;-56
2023/11/11 06:10:00;;;;;;;2.33;1.58;;;;;;;;;;5002787;28;20119;-55
2023/11/11 06:12:26;;;;;;;1.80;1.33;;;;;;;;;;5005684;28;20049;-56
2023/11/11 06:14:51;;;;;;;2.00;1.60;;;;;;;;;;5006877;28;20037;-55
2023/11/11 06:17:16;;;;;;;2.10;1.45;;;;;;;;;;5005157;28;20099;-56
2023/11/11 06:19:42;;;;;;;2.10;1.30;;;;;;;;;;5004422;28;20042;-56
2023/11/11 06:22:07;;;;;;;2.58;1.60;;;;;;;;;;5003037;28;20054;-55
2023/11/11 06:24:32;;;;;;;2.10;1.60;;;;;;;;;;5005161;28;20060;-55
2023/11/11 06:26:57;;;;;;;2.27;1.60;;;;;;;;;;4997669;28;20048;-56
2023/11/11 06:29:23;;;;;;;2.50;1.50;;;;;;;;;;5003421;28;20798;-58
2023/11/11 06:31:50;;;;;;;2.13;1.40;;;;;;;;;;5001821;28;20281;-57
2023/11/11 06:34:15;;;;;;;1.95;1.60;;;;;;;;;;4991153;28;20042;-56
2023/11/11 06:36:41;;;;;;;2.27;1.50;;;;;;;;;;5003442;28;20045;-55
2023/11/11 06:39:08;;;;;;;2.33;1.43;;;;;;;;;;5005575;28;20280;-55
2023/11/11 06:41:33;;;;;;;2.08;1.60;;;;;;;;;;5005533;28;20300;-55
2023/11/11 06:43:58;;;;;;;2.00;1.60;;;;;;;;;;5002251;28;20146;-54
2023/11/11 06:46:24;;;;;;;2.22;1.45;;;;;;;;;;5012761;28;20308;-55
2023/11/11 06:48:49;;;;;;;1.97;1.60;;;;;;;;;;5017997;28;20041;-57
2023/11/11 06:51:14;;;;;;;1.77;1.35;;;;;;;;;;5004903;28;20295;-56
2023/11/11 06:53:39;;;;;;;2.25;1.30;;;;;;;;;;5024992;28;20033;-57
2023/11/11 06:56:05;;;;;;;1.92;1.42;;;;;;;;;;5024284;28;20072;-57
2023/11/11 06:58:31;;;;;;;2.45;1.65;;;;;;;;;;4999381;28;20046;-56
2023/11/11 07:00:58;;;;;;;3.75;1.50;;;;;;;;;;5002537;28;20034;-56
2023/11/11 07:03:23;;;;;;;2.42;1.30;;;;;;;;;;5000047;28;20022;-56
2023/11/11 07:05:49;;;;;;;1.83;1.30;;;;;;;;;;5013547;28;20670;-55
2023/11/11 07:08:14;;;;;;;2.10;1.38;;;;;;;;;;5012288;28;20657;-55
2023/11/11 07:10:39;;;;;;;2.10;1.25;;;;;;;;;;5011866;28;20130;-56
2023/11/11 07:13:06;;;;;;;2.55;1.35;;;;;;;;;;5021766;28;20086;-56
2023/11/11 07:15:31;;;;;;;2.30;1.40;;;;;;;;;;5012534;28;20104;-58
2023/11/11 07:17:56;;;;;;;2.45;1.45;;;;;;;;;;5010967;28;20385;-55
2023/11/11 07:20:21;;;;;;;2.20;1.40;;;;;;;;;;5017802;28;20085;-55
2023/11/11 07:22:48;;;;;;;2.30;1.50;;;;;;;;;;5018922;28;20195;-54
2023/11/11 07:25:14;;;;;;;2.88;1.60;;;;;;;;;;5017761;28;20896;-56
2023/11/11 07:27:40;;;;;;;2.42;1.77;;;;;;;;;;5018472;28;20443;-56
2023/11/11 07:30:09;;;;;;;1.88;1.30;;;;;;;;;;5020707;28;20198;-55
2023/11/11 07:32:35;;;;;;;1.73;1.20;;;;;;;;;;5021970;28;20119;-56
2023/11/11 07:35:00;;;;;;;3.33;1.50;;;;;;;;;;5013961;28;20191;-59
2023/11/11 07:37:26;;;;;;;1.88;1.40;;;;;;;;;;5019333;28;21054;-55
2023/11/11 07:39:51;;;;;;;1.90;1.40;;;;;;;;;;5016248;28;20026;-56
2023/11/11 07:42:17;;;;;;;1.60;1.17;;;;;;;;;;5010197;28;20033;-56
2023/11/11 07:44:42;;;;;;;2.80;1.67;;;;;;;;;;5019969;28;20025;-55
2023/11/11 07:47:08;;;;;;;1.88;1.40;;;;;;;;;;5031274;28;20264;-57
2023/11/11 07:49:34;;;;;;;2.63;1.75;;;;;;;;;;5017006;28;20038;-56
2023/11/11 07:52:01;;;;;;;2.38;1.65;;;;;;;;;;5006159;28;20049;-56
2023/11/11 07:54:27;;;;;;;1.98;1.50;;;;;;;;;;5010395;28;20073;-56
2023/11/11 07:56:52;;;;;;;1.98;1.20;;;;;;;;;;5011337;28;20069;-55
2023/11/11 07:59:18;;;;;;;1.88;1.30;;;;;;;;;;5008916;28;20080;-56
2023/11/11 08:01:45;;;;;;;2.20;1.27;;;;;;;;;;5009826;28;20041;-54
2023/11/11 08:04:10;;;;;;;1.60;1.20;;;;;;;;;;5009551;28;20068;-55
2023/11/11 08:06:36;;;;;;;2.70;1.40;;;;;;;;;;5011242;28;20033;-54
2023/11/11 08:09:01;;;;;;;2.40;1.47;;;;;;;;;;5009304;28;20060;-55
2023/11/11 08:11:26;;;;;;;1.88;1.17;;;;;;;;;;5020354;28;20280;-56
2023/11/11 08:13:52;;;;;;;2.50;1.52;;;;;;;;;;5007850;28;20154;-56
2023/11/11 08:16:18;;;;;;;2.38;1.40;;;;;;;;;;5008628;28;20628;-56
2023/11/11 08:18:43;;;;;;;1.50;1.10;;;;;;;;;;5008080;28;20030;-58
2023/11/11 08:21:09;;;;;;;2.63;1.60;;;;;;;;;;5010848;28;20080;-56
2023/11/11 08:23:35;;;;;;;2.47;1.50;;;;;;;;;;5006914;28;20046;-56
2023/11/11 08:26:00;;;;;;;2.58;1.40;;;;;;;;;;5026812;28;20533;-57
2023/11/11 08:28:25;;;;;;;2.20;1.40;;;;;;;;;;5011243;28;20034;-56
2023/11/11 08:30:51;;;;;;;3.03;1.33;;;;;;;;;;5008085;28;20038;-56
2023/11/11 08:33:18;;;;;;;2.75;1.50;;;;;;;;;;5008945;28;20292;-56
2023/11/11 08:35:44;;;;;;;4.03;1.40;;;;;;;;;;5009452;28;20042;-57
2023/11/11 08:38:10;;;;;;;3.60;1.30;;;;;;;;;;5012492;28;20053;-57
2023/11/11 08:40:35;;;;;;;2.00;1.20;;;;;;;;;;5011488;28;20589;-55
2023/11/11 08:43:00;;;;;;;2.13;1.40;;;;;;;;;;5007646;28;20064;-57
2023/11/11 08:45:26;;;;;;;2.60;1.35;;;;;;;;;;5027569;28;20461;-57
2023/11/11 08:47:51;;;;;;;2.97;1.50;;;;;;;;;;5012499;28;20033;-56
2023/11/11 08:50:16;;;;;;;1.92;1.35;;;;;;;;;;5011418;28;20499;-55
2023/11/11 08:52:42;;;;;;;2.33;1.50;;;;;;;;;;5007922;28;20038;-57
2023/11/11 08:55:07;;;;;;;2.35;1.40;;;;;;;;;;5011089;28;20492;-55
2023/11/11 08:57:32;;;;;;;2.28;1.30;;;;;;;;;;5013212;28;20100;-55
2023/11/11 08:59:58;;;;;;;2.03;1.40;;;;;;;;;;5007848;28;20383;-57
2023/11/11 09:02:23;;;;;;;2.50;1.67;;;;;;;;;;5010035;28;20045;-56
2023/11/11 09:04:49;;;;;;;2.50;1.30;;;;;;;;;;5009026;28;20448;-56
2023/11/11 09:07:14;;;;;;;2.53;1.55;;;;;;;;;;5010561;28;20745;-54
2023/11/11 09:09:39;;;;;;;2.73;1.43;;;;;;;;;;5012095;28;20065;-54
2023/11/11 09:12:06;;;;;;;1.75;1.30;;;;;;;;;;5006090;28;20875;-54
2023/11/11 09:14:33;;;;;;;3.08;1.38;;;;;;;;;;5008056;28;20408;-55
2023/11/11 09:17:02;;;;;;;2.60;1.50;;;;;;;;;;5007689;28;20038;-55
2023/11/11 09:19:27;;;;;;;2.05;1.33;;;;;;;;;;5010798;28;20506;-54
2023/11/11 09:21:53;;;;;;;2.80;1.40;;;;;;;;;;5012224;28;20120;-55
2023/11/11 09:24:18;;;;;;;2.53;1.40;;;;;;;;;;5010888;28;20538;-54
2023/11/11 09:26:43;;;;;;;2.42;1.60;;;;;;;;;;5012712;28;20504;-55
2023/11/11 09:29:08;;;;;;;2.37;1.23;;;;;;;;;;5017358;28;20496;-54
2023/11/11 09:31:34;;;;;;;1.90;1.38;;;;;;;;;;5013706;28;20288;-55
2023/11/11 09:34:02;;;;;;;2.92;1.60;;;;;;;;;;5017044;28;20037;-55
2023/11/11 09:36:27;;;;;;;2.95;1.30;;;;;;;;;;5014602;28;20034;-55
2023/11/11 09:38:53;;;;;;;2.13;1.50;;;;;;;;;;5012368;28;20030;-56
2023/11/11 09:41:18;;;;;;;1.67;1.30;;;;;;;;;;5016299;28;20121;-56
2023/11/11 09:43:44;;;;;;;2.90;1.38;;;;;;;;;;5013658;28;20315;-56
2023/11/11 09:46:10;;;;;;;1.80;1.38;;;;;;;;;;5012028;28;20057;-56
2023/11/11 09:48:35;;;;;;;2.47;1.58;;;;;;;;;;5014782;28;20038;-56
2023/11/11 09:51:02;;;;;;;2.47;1.50;;;;;;;;;;5015723;28;20068;-56
2023/11/11 09:53:28;;;;;;;2.30;1.52;;;;;;;;;;5014566;28;20041;-55
2023/11/11 09:55:53;;;;;;;2.40;1.50;;;;;;;;;;5010474;28;21122;-55
2023/11/11 09:58:18;;;;;;;1.77;1.35;;;;;;;;;;5011917;28;20335;-55
2023/11/11 10:00:43;;;;;;;2.10;1.40;;;;;;;;;;5010789;28;20060;-56
2023/11/11 10:03:09;;;;;;;2.50;1.50;;;;;;;;;;5010753;28;20053;-56
2023/11/11 10:05:35;;;;;;;1.80;1.40;;;;;;;;;;5016535;28;20025;-56
2023/11/11 10:08:00;;;;;;;1.95;1.20;;;;;;;;;;5013034;28;20453;-55
2023/11/11 10:10:25;;;;;;;1.75;1.25;;;;;;;;;;5012483;28;20036;-55
2023/11/11 10:12:51;;;;;;;2.50;1.50;;;;;;;;;;5025875;28;20034;-55
2023/11/11 10:15:16;;;;;;;2.08;1.70;;;;;;;;;;5010444;28;20030;-54
2023/11/11 10:17:41;;;;;;;2.75;1.50;;;;;;;;;;5012625;28;20038;-55
2023/11/11 10:20:08;;;;;;;3.13;1.63;;;;;;;;;;5013928;28;20492;-55
2023/11/11 10:22:37;;;;;;;2.38;1.60;;;;;;;;;;5011656;28;20037;-55
2023/11/11 10:25:04;;;;;;;2.47;1.43;;;;;;;;;;5011658;28;20109;-55
2023/11/11 10:27:30;;;;;;;2.70;1.60;;;;;;;;;;5014091;28;20045;-55
2023/11/11 10:29:56;;;;;;;2.58;1.48;;;;;;;;;;5010909;28;20098;-55
2023/11/11 10:32:22;;;;;;;2.80;1.50;;;;;;;;;;5013546;28;20100;-55
2023/11/11 10:34:47;;;;;;;2.83;1.70;;;;;;;;;;5011460;28;20080;-56
2023/11/11 10:37:12;;;;;;;13.85;1.75;;;;;;;;;;5008175;28;20163;-55
2023/11/11 10:39:39;;;;;;;4.45;1.80;;;;;;;;;;5012326;28;20470;-55
2023/11/11 10:42:04;;;;;;;3.20;1.60;;;;;;;;;;5015489;28;20053;-56
2023/11/11 10:44:32;;;;;;;3.72;1.60;;;;;;;;;;5012271;28;20042;-56
2023/11/11 10:46:57;;;;;;;5.63;1.88;;;;;;;;;;5013330;28;20036;-56
2023/11/11 10:49:22;;;;;;;2.83;1.40;;;;;;;;;;5012533;28;20037;-55
2023/11/11 10:51:50;;;;;;;4.70;1.80;;;;;;;;;;5011392;28;20415;-56
2023/11/11 10:54:15;;;;;;;2.90;1.50;;;;;;;;;;5013186;28;20320;-56
2023/11/11 10:56:40;;;;;;;3.85;1.40;;;;;;;;;;5011629;28;20073;-56
2023/11/11 10:59:05;;;;;;;4.00;1.60;;;;;;;;;;5025374;28;20098;-56
2023/11/11 11:01:32;;;;;;;6.63;1.67;;;;;;;;;;5009626;28;20411;-56
2023/11/11 11:03:58;;;;;;;3.92;1.80;;;;;;;;;;5026107;28;20083;-56
2023/11/11 11:06:23;;;;;;;2.90;1.40;;;;;;;;;;5011793;28;20026;-56
2023/11/11 11:08:57;;;;;;;4.10;1.60;;;;;;;;;;5010919;28;20041;-56
2023/11/11 11:11:38;;;;;;;5.18;1.70;;;;;;;;;;5026773;28;20972;-56
2023/11/11 11:14:14;;;;;;;4.15;1.50;;;;;;;;;;5029270;28;20042;-57
2023/11/11 11:16:40;;;;;;;5.35;2.20;;;;;;;;;;5028505;28;20041;-57
2023/11/11 11:19:08;;;;;;;4.00;1.70;;;;;;;;;;5009051;28;20084;-55
2023/11/11 11:21:36;;;;;;;4.53;1.80;;;;;;;;;;5028121;28;20622;-55
2023/11/11 11:24:08;;;;;;;4.65;1.60;;;;;;;;;;5013903;28;20049;-56
2023/11/11 11:26:33;;;;;;;3.72;1.55;;;;;;;;;;5012452;28;20128;-57
2023/11/11 11:29:12;;;;;;;4.53;1.40;;;;;;;;;;5008632;28;20508;-56
2023/11/11 11:31:56;;;;;;;4.30;1.20;;;;;;;;;;5015243;28;20855;-55
2023/11/11 11:34:21;;;;;;;4.68;1.50;;;;;;;;;;4995254;28;20049;-54
2023/11/11 11:37:05;;;;;;;2.17;1.00;;;;;;;;;;5007454;28;20038;-55
2023/11/11 11:39:38;;;;;;;2.47;1.00;;;;;;;;;;4995877;28;20332;-55
2023/11/11 11:42:14;;;;;;;2.60;0.90;;;;;;;;;;5004215;28;20073;-56
2023/11/11 11:44:39;;;;;;;2.30;0.90;;;;;;;;;;5001687;28;20045;-55
2023/11/11 11:47:05;;;;;;;2.90;0.85;;;;;;;;;;5002208;28;20043;-56
2023/11/11 11:49:30;;;;;;;1.67;0.60;;;;;;;;;;4998744;28;20498;-58
2023/11/11 11:51:56;;;;;;;2.53;0.80;;;;;;;;;;5004440;28;20033;-58
2023/11/11 11:54:22;;;;;;;1.50;0.80;;;;;;;;;;5003134;28;20041;-58
2023/11/11 11:56:47;;;;;;;1.67;0.50;;;;;;;;;;5002710;28;20031;-58
2023/11/11 11:59:13;;;;;;;0.90;0.50;;;;;;;;;;4998787;28;20484;-55
2023/11/11 12:01:39;;;;;;;0.98;0.55;;;;;;;;;;4999724;28;20136;-57
2023/11/11 12:04:04;;;;;;;2.17;0.50;;;;;;;;;;4998152;28;20128;-57
2023/11/11 12:06:30;;;;;;;0.80;0.40;;;;;;;;;;5006610;28;20504;-55
2023/11/11 12:08:55;;;;;;;1.42;0.60;;;;;;;;;;5007432;28;20038;-55
2023/11/11 12:11:24;;;;;;;1.90;0.50;;;;;;;;;;5003611;28;20057;-56
2023/11/11 12:13:50;;;;;;;3.33;0.40;;;;;;;;;;5001838;28;20097;-56
2023/11/11 12:16:16;;;;;;;1.60;0.50;;;;;;;;;;5000964;28;20037;-56
2023/11/11 12:18:42;;;;;;;2.10;0.40;;;;;;;;;;4998156;28;20037;-56
2023/11/11 12:21:07;;;;;;;1.83;0.45;;;;;;;;;;4998983;28;20511;-56
2023/11/11 12:23:32;;;;;;;1.13;0.43;;;;;;;;;;4999920;28;20026;-56
2023/11/11 12:25:57;;;;;;;3.50;0.50;;;;;;;;;;5004064;28;20581;-56
2023/11/11 12:28:23;;;;;;;1.23;0.40;;;;;;;;;;5001898;28;20284;-55
2023/11/11 12:30:48;;;;;;;1.35;0.40;;;;;;;;;;5002728;28;20527;-56
2023/11/11 12:33:14;;;;;;;2.53;0.65;;;;;;;;;;5004231;28;20046;-56
2023/11/11 12:35:40;;;;;;;3.22;0.50;;;;;;;;;;5001975;28;20038;-56
2023/11/11 12:38:24;;;;;;;1.10;0.60;;;;;;;;;;5020433;28;20043;-56
2023/11/11 12:40:51;;;;;;;0.82;0.40;;;;;;;;;;4989907;28;20522;-56
2023/11/11 12:43:16;;;;;;;0.88;0.30;;;;;;;;;;4987934;28;20042;-55
2023/11/11 12:45:54;;;;;;;1.15;0.40;;;;;;;;;;4995727;28;20586;-56
2023/11/11 12:48:22;;;;;;;1.30;0.52;;;;;;;;;;5006891;28;20041;-56
2023/11/11 12:50:47;;;;;;;2.08;0.50;;;;;;;;;;4997914;28;20084;-56
2023/11/11 12:53:15;;;;;;;2.13;0.40;;;;;;;;;;5005340;28;20496;-56
2023/11/11 12:55:43;;;;;;;4.00;0.80;;;;;;;;;;4990531;28;20140;-60
2023/11/11 12:58:18;;;;;;;4.18;0.65;;;;;;;;;;5006842;28;20571;-56
2023/11/11 13:00:49;;;;;;;3.95;0.80;;;;;;;;;;4997390;28;20054;-57
2023/11/11 13:03:25;;;;;;;1.60;0.70;;;;;;;;;;4993846;28;20222;-56
2023/11/11 13:05:50;;;;;;;2.38;0.73;;;;;;;;;;5013908;28;20038;-58
2023/11/11 13:08:21;;;;;;;1.95;0.50;;;;;;;;;;5012946;28;20014;-55
2023/11/11 13:10:51;;;;;;;1.88;0.63;;;;;;;;;;5013460;28;20052;-57
2023/11/11 13:13:17;;;;;;;1.42;0.50;;;;;;;;;;5012086;28;20034;-56
2023/11/11 13:15:42;;;;;;;3.67;0.73;;;;;;;;;;5019761;28;20550;-57
2023/11/11 13:18:08;;;;;;;1.50;0.57;;;;;;;;;;5013377;28;20276;-56
2023/11/11 13:20:33;;;;;;;4.53;0.85;;;;;;;;;;5012954;28;20045;-56
2023/11/11 13:23:00;;;;;;;2.53;0.67;;;;;;;;;;5016989;28;20021;-56
2023/11/11 13:25:25;;;;;;;3.78;0.70;;;;;;;;;;5012761;28;20284;-57
2023/11/11 13:27:51;;;;;;;3.33;0.77;;;;;;;;;;5011682;28;20044;-56
2023/11/11 13:30:17;;;;;;;3.92;0.70;;;;;;;;;;5012048;28;20091;-57
2023/11/11 13:32:43;;;;;;;2.40;0.70;;;;;;;;;;5014365;28;20025;-56
2023/11/11 13:35:08;;;;;;;2.97;0.70;;;;;;;;;;5014644;28;20040;-56
2023/11/11 13:37:34;;;;;;;2.25;0.57;;;;;;;;;;5012133;28;20025;-56
2023/11/11 13:39:59;;;;;;;2.45;0.70;;;;;;;;;;5010061;28;20877;-56
2023/11/11 13:42:25;;;;;;;1.50;0.60;;;;;;;;;;5012934;28;20161;-56
2023/11/11 13:44:50;;;;;;;3.03;0.60;;;;;;;;;;5010699;28;20356;-56
2023/11/11 13:47:16;;;;;;;2.42;0.82;;;;;;;;;;5011305;28;20092;-56
2023/11/11 13:49:41;;;;;;;2.80;0.45;;;;;;;;;;5016745;28;20053;-56
2023/11/11 13:52:06;;;;;;;3.33;0.82;;;;;;;;;;5015038;28;20117;-56
2023/11/11 13:54:32;;;;;;;2.08;0.70;;;;;;;;;;5011690;28;20492;-55
2023/11/11 13:56:57;;;;;;;4.25;0.60;;;;;;;;;;5010952;28;20429;-56
2023/11/11 13:59:23;;;;;;;1.40;0.60;;;;;;;;;;5011931;28;20618;-56
2023/11/11 14:01:48;;;;;;;2.55;0.60;;;;;;;;;;5011108;28;20412;-56
2023/11/11 14:04:15;;;;;;;2.17;0.53;;;;;;;;;;5002451;28;20033;-55
2023/11/11 14:06:42;;;;;;;2.05;0.73;;;;;;;;;;5003711;28;20288;-56
2023/11/11 14:09:10;;;;;;;3.88;0.85;;;;;;;;;;5004839;28;20063;-55
2023/11/11 14:11:35;;;;;;;1.98;0.60;;;;;;;;;;5004661;28;20070;-55
2023/11/11 14:14:01;;;;;;;1.80;0.70;;;;;;;;;;5004949;28;20500;-57
2023/11/11 14:16:27;;;;;;;1.38;0.60;;;;;;;;;;5004720;28;20507;-56
2023/11/11 14:18:52;;;;;;;1.77;0.57;;;;;;;;;;5008339;28;20038;-55
2023/11/11 14:21:18;;;;;;;2.30;0.65;;;;;;;;;;5009239;28;20064;-55
2023/11/11 14:23:43;;;;;;;3.22;0.52;;;;;;;;;;5012883;28;20095;-56
2023/11/11 14:26:09;;;;;;;13.38;1.52;;;;;;;;;;5010202;28;20233;-56
2023/11/11 14:28:34;;;;;;;4.15;0.80;;;;;;;;;;5013958;28;20042;-59
2023/11/11 14:31:00;;;;;;;6.45;0.88;;;;;;;;;;5011952;28;20471;-56
2023/11/11 14:33:25;;;;;;;2.60;0.77;;;;;;;;;;5011685;28;20569;-55
2023/11/11 14:35:50;;;;;;;3.40;0.70;;;;;;;;;;5011893;28;20175;-56